Oakland, Tennessee
Current Conditions -  °F | °C
As of 12:50 PM on Friday 28 Nov 2014 (Local Time) from KNQA Reporting Station
Clear Clear  
Wind Chill: 52°   Ceiling: Unl
Heat Index: 52°   Visibility: 10mi
Dew Point: 27°   Wind: 9mph
Humidity: 38%   Direction: 190°S
Pressure: 30.25"   Gusts: NA
Location:  35.23°N, 89.52°W
Report Text: KNQA 281850Z 19008KT 150V230 10SM SKC 11/M03 A3025
Loading
Personal Weather Stations






























Interactive Weather Map New forecast layout! Learn more

10-Day Weather Forecast

Advertisements
Track Severe Weather on mobile